createdAt,value
2022-07-26T00:01:50.109Z,24.80
2022-07-26T00:04:17.887Z,24.77
2022-07-26T00:06:45.802Z,24.74
2022-07-26T00:09:13.464Z,24.71
2022-07-26T00:11:41.181Z,24.69
2022-07-26T00:14:09.214Z,24.65
2022-07-26T00:16:38.303Z,24.63
2022-07-26T00:19:08.679Z,24.60
2022-07-26T00:21:40.680Z,24.58
2022-07-26T00:24:09.457Z,24.51
2022-07-26T00:26:37.623Z,24.48
2022-07-26T00:29:07.030Z,24.44
2022-07-26T00:31:35.147Z,24.40
2022-07-26T00:34:02.865Z,24.36
2022-07-26T00:36:30.896Z,24.33
2022-07-26T00:38:58.579Z,24.31
2022-07-26T00:41:26.263Z,24.25
2022-07-26T00:43:59.280Z,24.22
2022-07-26T00:46:27.973Z,24.17
2022-07-26T00:48:55.861Z,24.17
2022-07-26T00:51:24.236Z,24.15
2022-07-26T00:53:52.193Z,24.14
2022-07-26T00:56:20.000Z,24.13
2022-07-26T00:58:47.741Z,24.10
2022-07-26T01:01:15.596Z,24.09
2022-07-26T01:03:43.378Z,24.09
2022-07-26T01:06:11.203Z,24.07
2022-07-26T01:08:39.271Z,24.05
2022-07-26T01:11:07.041Z,24.03
2022-07-26T01:13:35.769Z,24.04
2022-07-26T01:16:04.331Z,24.03
2022-07-26T01:18:32.159Z,24.01
2022-07-26T01:21:13.256Z,24.00
2022-07-26T01:23:41.654Z,24.00
2022-07-26T01:26:09.728Z,23.95
2022-07-26T01:28:40.227Z,23.94
2022-07-26T01:31:09.647Z,23.92
2022-07-26T01:33:37.432Z,23.91
2022-07-26T01:36:05.291Z,23.89
2022-07-26T01:38:32.913Z,23.88
2022-07-26T01:41:00.679Z,23.86
2022-07-26T01:43:28.348Z,23.83
2022-07-26T01:45:56.681Z,23.81
2022-07-26T01:48:24.410Z,23.80
2022-07-26T01:50:52.104Z,23.78
2022-07-26T01:53:19.874Z,23.76
2022-07-26T01:55:47.583Z,23.75
2022-07-26T01:58:15.359Z,23.73
2022-07-26T02:00:43.222Z,23.74
2022-07-26T02:03:11.054Z,23.74
2022-07-26T02:05:38.764Z,23.78
2022-07-26T02:08:06.917Z,23.79
2022-07-26T02:10:53.551Z,23.80
2022-07-26T02:13:22.814Z,23.81
2022-07-26T02:15:50.611Z,23.79
2022-07-26T02:18:18.394Z,23.76
2022-07-26T02:20:46.077Z,23.69
2022-07-26T02:23:14.138Z,23.67
2022-07-26T02:25:41.861Z,23.67
2022-07-26T02:28:09.567Z,23.65
2022-07-26T02:30:37.362Z,23.59
2022-07-26T02:33:07.163Z,23.57
2022-07-26T02:35:34.971Z,23.53
2022-07-26T02:38:06.283Z,23.53
2022-07-26T02:40:34.801Z,23.58
2022-07-26T02:43:02.769Z,23.60
2022-07-26T02:45:30.530Z,23.57
2022-07-26T02:47:58.334Z,23.52
2022-07-26T02:50:27.995Z,23.47
2022-07-26T02:52:56.147Z,23.39
2022-07-26T02:55:26.615Z,23.35
2022-07-26T02:57:54.486Z,23.36
2022-07-26T03:00:27.032Z,23.32
2022-07-26T03:02:54.875Z,23.36
2022-07-26T03:05:22.682Z,23.36
2022-07-26T03:07:50.539Z,23.40
2022-07-26T03:10:18.243Z,23.42
2022-07-26T03:12:45.956Z,23.43
2022-07-26T03:15:13.860Z,23.39
2022-07-26T03:17:41.549Z,23.40
2022-07-26T03:20:10.126Z,23.42
2022-07-26T03:22:37.815Z,23.44
2022-07-26T03:25:06.522Z,23.45
2022-07-26T03:27:34.488Z,23.45
2022-07-26T03:30:02.410Z,23.41
2022-07-26T03:32:30.153Z,23.31
2022-07-26T03:34:57.801Z,23.22
2022-07-26T03:37:25.638Z,23.15
2022-07-26T03:40:13.466Z,23.14
2022-07-26T03:42:41.134Z,23.04
2022-07-26T03:45:10.333Z,22.92
2022-07-26T03:47:38.419Z,22.81
2022-07-26T03:50:07.441Z,22.81
2022-07-26T03:52:35.192Z,22.79
2022-07-26T03:55:22.839Z,22.72
2022-07-26T03:57:50.563Z,22.57
2022-07-26T04:00:18.482Z,22.52
2022-07-26T04:02:46.252Z,22.44
2022-07-26T04:05:14.061Z,22.29
2022-07-26T04:07:52.546Z,22.19
2022-07-26T04:10:22.585Z,22.04
2022-07-26T04:12:53.164Z,21.94
2022-07-26T04:15:22.316Z,21.87
2022-07-26T04:17:50.176Z,21.76
2022-07-26T04:20:18.493Z,21.77
2022-07-26T04:22:46.346Z,21.66
2022-07-26T04:25:14.135Z,21.65
2022-07-26T04:27:41.814Z,21.57
2022-07-26T04:30:14.787Z,21.54
2022-07-26T04:32:43.215Z,21.45
2022-07-26T04:35:13.570Z,21.33
2022-07-26T04:37:45.459Z,21.18
2022-07-26T04:40:21.236Z,21.06
2022-07-26T04:42:51.033Z,20.95
2022-07-26T04:45:19.563Z,20.94
2022-07-26T04:47:52.338Z,20.91
2022-07-26T04:50:21.792Z,20.88
2022-07-26T04:52:50.463Z,20.79
2022-07-26T04:55:19.115Z,20.65
2022-07-26T04:57:47.794Z,20.60
2022-07-26T05:00:23.310Z,20.61
2022-07-26T05:02:54.393Z,20.55
2022-07-26T05:05:23.382Z,20.49
2022-07-26T05:07:54.354Z,20.49
2022-07-26T05:10:22.850Z,20.47
2022-07-26T05:12:50.636Z,20.45
2022-07-26T05:15:18.816Z,20.38
2022-07-26T05:17:46.633Z,20.38
2022-07-26T05:20:17.350Z,20.32
2022-07-26T05:22:45.388Z,20.26
2022-07-26T05:25:13.087Z,20.20
2022-07-26T05:27:42.724Z,20.14
2022-07-26T05:30:11.832Z,20.08
2022-07-26T05:32:40.067Z,20.05
2022-07-26T05:35:08.867Z,19.99
2022-07-26T05:37:37.271Z,19.93
2022-07-26T05:40:06.573Z,19.92
2022-07-26T05:42:34.298Z,19.95
2022-07-26T05:45:01.999Z,19.97
2022-07-26T05:47:31.166Z,19.91
2022-07-26T05:49:58.943Z,19.85
2022-07-26T05:52:26.710Z,19.72
2022-07-26T05:54:54.351Z,19.64
2022-07-26T05:57:22.052Z,19.62
2022-07-26T05:59:49.768Z,19.58
2022-07-26T06:02:17.492Z,19.58
2022-07-26T06:04:45.303Z,19.60
2022-07-26T06:07:15.423Z,19.65
2022-07-26T06:09:43.475Z,19.69
2022-07-26T06:12:11.426Z,19.70
2022-07-26T06:14:39.306Z,19.72
2022-07-26T06:17:07.039Z,19.77
2022-07-26T06:19:35.080Z,19.80
2022-07-26T06:22:02.818Z,19.85
2022-07-26T06:24:30.989Z,19.89
2022-07-26T06:27:04.768Z,19.98
2022-07-26T06:29:33.203Z,20.10
2022-07-26T06:32:01.110Z,20.16
2022-07-26T06:34:29.165Z,20.20
2022-07-26T06:36:57.032Z,20.31
2022-07-26T06:39:24.709Z,20.31
2022-07-26T06:41:52.473Z,20.33
2022-07-26T06:44:20.170Z,20.34
2022-07-26T06:46:47.857Z,20.35
2022-07-26T06:49:19.413Z,20.38
2022-07-26T06:51:49.701Z,20.44
2022-07-26T06:54:17.426Z,20.47
2022-07-26T06:56:45.671Z,20.50
2022-07-26T06:59:13.397Z,20.54
2022-07-26T07:01:57.956Z,20.59
2022-07-26T07:04:31.659Z,20.59
2022-07-26T07:07:05.771Z,20.63
2022-07-26T07:09:34.994Z,20.65
2022-07-26T07:12:10.465Z,20.68
2022-07-26T07:14:39.508Z,20.68
2022-07-26T07:17:11.159Z,20.69
2022-07-26T07:19:40.913Z,20.69
2022-07-26T07:22:12.829Z,20.72
2022-07-26T07:24:41.010Z,20.80
2022-07-26T07:27:09.190Z,20.85
2022-07-26T07:29:38.983Z,20.84
2022-07-26T07:32:09.298Z,20.86
2022-07-26T07:34:47.551Z,20.90
2022-07-26T07:37:15.855Z,21.01
2022-07-26T07:39:43.697Z,21.12
2022-07-26T07:42:11.387Z,21.23
2022-07-26T07:44:39.083Z,21.33
2022-07-26T07:47:07.430Z,21.41
2022-07-26T07:49:35.325Z,21.44
2022-07-26T07:52:03.054Z,21.44
2022-07-26T07:54:30.877Z,21.42
2022-07-26T07:57:00.005Z,21.32
2022-07-26T07:59:28.448Z,21.39
2022-07-26T08:01:56.870Z,21.33
2022-07-26T08:04:25.025Z,21.36
2022-07-26T08:06:52.826Z,21.36
2022-07-26T08:09:21.233Z,21.36
2022-07-26T08:11:50.770Z,21.39
2022-07-26T08:14:20.058Z,21.51
2022-07-26T08:16:48.088Z,21.62
2022-07-26T08:19:16.362Z,21.77
2022-07-26T08:21:47.133Z,21.91
2022-07-26T08:24:14.979Z,21.94
2022-07-26T08:26:42.696Z,21.99
2022-07-26T08:29:10.606Z,22.00
2022-07-26T08:31:38.710Z,22.02
2022-07-26T08:34:06.488Z,22.09
2022-07-26T08:36:34.184Z,22.16
2022-07-26T08:39:02.630Z,22.23
2022-07-26T08:41:31.653Z,22.23
2022-07-26T08:44:09.894Z,22.20
2022-07-26T08:46:40.255Z,22.22
2022-07-26T08:49:11.292Z,22.30
2022-07-26T08:51:45.082Z,22.28
2022-07-26T08:54:15.451Z,22.23
2022-07-26T08:56:51.119Z,22.22
2022-07-26T08:59:22.373Z,22.22
2022-07-26T09:01:55.408Z,22.17
2022-07-26T09:04:32.709Z,22.11
2022-07-26T09:07:10.288Z,22.17
2022-07-26T09:09:40.835Z,22.24
2022-07-26T09:12:17.685Z,22.33
2022-07-26T09:14:48.131Z,22.43
2022-07-26T09:17:21.216Z,22.52
2022-07-26T09:20:08.704Z,22.63
2022-07-26T09:22:37.773Z,22.74
2022-07-26T09:25:21.841Z,22.83
2022-07-26T09:27:50.036Z,22.94
2022-07-26T09:30:17.939Z,23.02
2022-07-26T09:33:01.065Z,23.10
2022-07-26T09:35:50.489Z,23.17
2022-07-26T09:38:17.853Z,23.25
2022-07-26T09:40:47.324Z,23.36
2022-07-26T09:43:23.794Z,23.36
2022-07-26T09:46:06.138Z,23.42
2022-07-26T09:48:59.401Z,23.42
2022-07-26T09:51:40.135Z,23.37
2022-07-26T09:54:09.004Z,23.35
2022-07-26T09:57:03.708Z,23.30
2022-07-26T09:59:31.867Z,23.19
2022-07-26T10:02:00.961Z,23.13
2022-07-26T10:04:28.830Z,23.07
2022-07-26T10:06:59.288Z,23.00
2022-07-26T10:09:41.475Z,22.95
2022-07-26T10:12:13.791Z,22.90
2022-07-26T10:14:49.013Z,22.82
2022-07-26T10:17:35.285Z,22.78
2022-07-26T10:20:17.660Z,22.71
2022-07-26T10:22:51.598Z,22.65
2022-07-26T10:25:19.436Z,22.44
2022-07-26T10:27:49.655Z,22.24
2022-07-26T10:30:17.241Z,22.07
2022-07-26T10:33:03.087Z,21.91
2022-07-26T10:35:45.607Z,21.87
2022-07-26T10:38:23.874Z,21.85
2022-07-26T10:41:03.671Z,21.81
2022-07-26T10:43:41.050Z,21.80
2022-07-26T10:46:21.556Z,21.84
2022-07-26T10:49:00.366Z,21.88
2022-07-26T10:51:30.619Z,21.89
2022-07-26T10:54:07.873Z,21.90
2022-07-26T10:56:36.271Z,21.94
2022-07-26T10:59:05.277Z,22.02
2022-07-26T11:01:38.584Z,22.08
2022-07-26T11:04:20.488Z,22.15
2022-07-26T11:06:48.239Z,22.21
2022-07-26T11:09:17.087Z,22.25
2022-07-26T11:11:47.127Z,22.26
2022-07-26T11:14:18.180Z,22.33
2022-07-26T11:16:51.064Z,22.33
2022-07-26T11:19:21.404Z,22.32
2022-07-26T11:21:59.998Z,22.38
2022-07-26T11:24:28.680Z,22.42
2022-07-26T11:26:57.549Z,22.51
2022-07-26T11:29:38.188Z,22.65
2022-07-26T11:32:17.745Z,22.81
2022-07-26T11:34:46.510Z,22.96
2022-07-26T11:37:15.133Z,23.09
2022-07-26T11:39:42.851Z,23.16
2022-07-26T11:42:13.183Z,23.21
2022-07-26T11:44:45.612Z,23.25
2022-07-26T11:47:25.231Z,23.41
2022-07-26T11:52:41.269Z,23.76
2022-07-26T11:55:09.913Z,23.91
2022-07-26T11:57:37.687Z,24.04
2022-07-26T12:00:06.472Z,24.14
2022-07-26T12:02:34.291Z,24.17
2022-07-26T12:05:23.376Z,24.14
2022-07-26T12:08:05.965Z,24.17
2022-07-26T12:10:33.990Z,24.31
2022-07-26T12:13:16.138Z,24.49
2022-07-26T12:15:53.047Z,24.54
2022-07-26T12:18:31.949Z,24.62
2022-07-26T12:21:07.527Z,24.75
2022-07-26T12:23:56.132Z,24.82
2022-07-26T12:26:29.345Z,24.87
2022-07-26T12:28:58.287Z,24.86
2022-07-26T12:31:30.856Z,24.89
2022-07-26T12:33:59.783Z,24.90
2022-07-26T12:36:30.065Z,24.98
2022-07-26T12:39:00.983Z,25.02
2022-07-26T12:41:37.295Z,25.07
2022-07-26T12:44:07.348Z,25.08
2022-07-26T12:46:37.070Z,25.09
2022-07-26T12:49:05.745Z,25.10
2022-07-26T12:51:34.406Z,25.11
2022-07-26T12:54:02.200Z,25.08
2022-07-26T12:56:30.005Z,25.07
2022-07-26T12:59:02.183Z,25.11
2022-07-26T13:01:31.319Z,25.09
2022-07-26T13:03:59.295Z,25.06
2022-07-26T13:06:27.056Z,24.98
2022-07-26T13:08:54.760Z,24.98
2022-07-26T13:11:22.445Z,25.00
2022-07-26T13:13:50.694Z,25.01
2022-07-26T13:16:18.503Z,25.06
2022-07-26T13:18:47.173Z,25.08
2022-07-26T13:21:14.904Z,25.11
2022-07-26T13:23:42.688Z,25.07
2022-07-26T13:26:10.729Z,25.04
2022-07-26T13:28:38.756Z,24.97
2022-07-26T13:31:07.212Z,24.97
2022-07-26T13:33:35.027Z,24.90
2022-07-26T13:36:02.824Z,24.87
2022-07-26T13:38:34.531Z,24.89
2022-07-26T13:41:06.159Z,24.98
2022-07-26T13:43:33.919Z,25.04
2022-07-26T13:46:01.807Z,25.10
2022-07-26T13:48:30.081Z,25.13
2022-07-26T13:50:58.735Z,25.21
2022-07-26T13:53:26.992Z,25.29
2022-07-26T13:55:54.731Z,25.33
2022-07-26T13:58:22.955Z,25.36
2022-07-26T14:00:50.746Z,25.36
2022-07-26T14:03:18.583Z,25.38
2022-07-26T14:05:46.438Z,25.41
2022-07-26T14:08:14.218Z,25.43
2022-07-26T14:10:42.433Z,25.43
2022-07-26T14:13:10.538Z,25.38
2022-07-26T14:15:38.280Z,25.32
2022-07-26T14:18:06.022Z,25.36
2022-07-26T14:20:33.900Z,25.43
2022-07-26T14:23:01.730Z,25.43
2022-07-26T14:25:29.817Z,25.42
2022-07-26T14:28:01.201Z,25.40
2022-07-26T14:30:28.965Z,25.37
2022-07-26T14:32:56.710Z,25.32
2022-07-26T14:35:24.406Z,25.28
2022-07-26T14:37:52.152Z,25.25
2022-07-26T14:40:19.929Z,25.25
2022-07-26T14:42:47.690Z,25.26
2022-07-26T14:45:16.183Z,25.31
2022-07-26T14:47:44.335Z,25.27
2022-07-26T14:50:13.662Z,25.25
2022-07-26T14:52:45.000Z,25.17
2022-07-26T14:55:13.495Z,25.11
2022-07-26T14:57:42.720Z,25.12
2022-07-26T15:00:12.955Z,25.19
2022-07-26T15:02:46.067Z,25.25
2022-07-26T15:05:15.610Z,25.26
2022-07-26T15:07:44.298Z,25.29
2022-07-26T15:10:14.348Z,25.32
2022-07-26T15:12:43.515Z,25.36
2022-07-26T15:15:12.080Z,25.36
2022-07-26T15:17:39.787Z,25.35
2022-07-26T15:20:08.366Z,25.40
2022-07-26T15:22:36.272Z,25.45
2022-07-26T15:25:04.561Z,25.46
2022-07-26T15:27:32.382Z,25.49
2022-07-26T15:30:04.263Z,25.46
2022-07-26T15:32:33.649Z,25.46
2022-07-26T15:35:01.711Z,25.48
2022-07-26T15:37:29.953Z,25.46
2022-07-26T15:39:58.056Z,25.47
2022-07-26T15:42:25.796Z,25.48
2022-07-26T15:44:53.501Z,25.45
2022-07-26T15:47:52.195Z,25.44
2022-07-26T15:50:11.439Z,25.42
2022-07-26T15:52:41.169Z,25.34
2022-07-26T15:55:10.117Z,25.34
2022-07-26T15:57:37.905Z,25.30
2022-07-26T16:00:10.938Z,25.28
2022-07-26T16:02:41.103Z,25.24
2022-07-26T16:05:09.367Z,25.21
2022-07-26T16:07:37.110Z,25.26
2022-07-26T16:10:05.641Z,25.29
2022-07-26T16:12:34.237Z,25.39
2022-07-26T16:15:02.146Z,25.46
2022-07-26T16:17:29.915Z,25.52
2022-07-26T16:19:57.610Z,25.60
2022-07-26T16:22:25.460Z,25.74
2022-07-26T16:24:53.237Z,25.87
2022-07-26T16:27:20.991Z,25.95
2022-07-26T16:29:52.124Z,26.02
2022-07-26T16:32:22.208Z,26.06
2022-07-26T16:34:50.114Z,26.13
2022-07-26T16:37:17.996Z,26.13
2022-07-26T16:39:45.690Z,26.11
2022-07-26T16:42:13.444Z,26.05
2022-07-26T16:44:41.208Z,26.01
2022-07-26T16:47:09.086Z,25.96
2022-07-26T16:49:36.927Z,25.90
2022-07-26T16:52:04.989Z,25.82
2022-07-26T16:54:33.965Z,25.78
2022-07-26T16:57:02.150Z,25.74
2022-07-26T16:59:29.952Z,25.70
2022-07-26T17:01:59.696Z,25.66
2022-07-26T17:04:30.470Z,25.62
2022-07-26T17:07:22.643Z,25.57
2022-07-26T17:09:45.883Z,25.55
2022-07-26T17:12:13.612Z,25.51
2022-07-26T17:14:41.282Z,25.47
2022-07-26T17:17:09.095Z,25.43
2022-07-26T17:19:36.755Z,25.39
2022-07-26T17:22:04.987Z,25.37
2022-07-26T17:24:32.756Z,25.36
2022-07-26T17:27:01.986Z,25.32
2022-07-26T17:29:29.714Z,25.31
2022-07-26T17:31:57.486Z,25.28
2022-07-26T17:34:25.328Z,25.30
2022-07-26T17:37:00.989Z,25.27
2022-07-26T17:39:51.682Z,25.23
2022-07-26T17:42:17.346Z,25.19
2022-07-26T17:44:45.311Z,25.18
2022-07-26T17:47:27.361Z,25.17
2022-07-26T17:49:57.142Z,25.15
2022-07-26T17:52:26.654Z,25.13
2022-07-26T17:54:55.098Z,25.10
2022-07-26T17:57:22.753Z,25.09
2022-07-26T17:59:50.504Z,25.07
2022-07-26T18:02:18.411Z,25.05
2022-07-26T18:04:46.121Z,25.03
2022-07-26T18:07:13.906Z,25.01
2022-07-26T18:09:41.651Z,24.97
2022-07-26T18:12:09.446Z,24.93
2022-07-26T18:14:38.881Z,24.91
2022-07-26T18:17:06.667Z,24.89
2022-07-26T18:19:34.759Z,24.87
2022-07-26T18:22:05.940Z,24.82
2022-07-26T18:24:34.141Z,24.80
2022-07-26T18:27:01.852Z,24.77
2022-07-26T18:29:29.614Z,24.76
2022-07-26T18:32:01.288Z,24.72
2022-07-26T18:34:29.689Z,24.72
2022-07-26T18:36:57.500Z,24.69
2022-07-26T18:39:25.242Z,24.65
2022-07-26T18:42:00.522Z,24.62
2022-07-26T18:44:28.656Z,24.61
2022-07-26T18:46:57.107Z,24.56
2022-07-26T18:49:30.942Z,24.55
2022-07-26T18:52:05.821Z,24.51
2022-07-26T18:54:36.570Z,24.48
2022-07-26T18:57:04.761Z,24.45
2022-07-26T18:59:32.706Z,24.42
2022-07-26T19:02:00.870Z,24.39
2022-07-26T19:04:29.756Z,24.37
2022-07-26T19:06:57.577Z,24.33
2022-07-26T19:09:25.316Z,24.31
2022-07-26T19:11:53.019Z,24.29
2022-07-26T19:14:20.742Z,24.27
2022-07-26T19:16:48.531Z,24.24
2022-07-26T19:19:16.591Z,24.21
2022-07-26T19:21:49.476Z,24.20
2022-07-26T19:24:17.163Z,24.18
2022-07-26T19:26:45.200Z,24.15
2022-07-26T19:29:13.465Z,24.11
2022-07-26T19:31:43.008Z,24.09
2022-07-26T19:34:10.738Z,24.05
2022-07-26T19:36:38.747Z,24.04
2022-07-26T19:39:07.038Z,24.02
2022-07-26T19:41:35.278Z,24.00
2022-07-26T19:44:03.164Z,23.98
2022-07-26T19:46:31.080Z,23.97
2022-07-26T19:48:59.039Z,23.95
2022-07-26T19:51:26.729Z,23.93
2022-07-26T19:53:54.476Z,23.92
2022-07-26T19:56:22.254Z,23.90
2022-07-26T19:58:50.564Z,23.87
2022-07-26T20:01:18.350Z,23.84
2022-07-26T20:03:46.153Z,23.83
2022-07-26T20:06:13.861Z,23.81
2022-07-26T20:08:41.653Z,23.79
2022-07-26T20:11:09.585Z,23.77
2022-07-26T20:13:37.319Z,23.75
2022-07-26T20:16:06.426Z,23.75
2022-07-26T20:18:34.255Z,23.74
2022-07-26T20:21:01.943Z,23.74
2022-07-26T20:23:30.002Z,23.70
2022-07-26T20:25:57.851Z,23.69
2022-07-26T20:28:25.710Z,23.70
2022-07-26T20:30:55.100Z,23.64
2022-07-26T20:33:22.922Z,23.60
2022-07-26T20:35:54.872Z,23.57
2022-07-26T20:38:23.655Z,23.53
2022-07-26T20:40:51.498Z,23.51
2022-07-26T20:43:19.246Z,23.46
2022-07-26T20:45:47.266Z,23.43
2022-07-26T20:48:15.021Z,23.36
2022-07-26T20:50:42.732Z,23.32
2022-07-26T20:53:10.614Z,23.24
2022-07-26T20:55:38.269Z,23.21
2022-07-26T20:58:06.056Z,23.20
2022-07-26T21:00:33.778Z,23.19
2022-07-26T21:03:01.562Z,23.17
2022-07-26T21:05:32.472Z,23.10
2022-07-26T21:08:00.554Z,23.11
2022-07-26T21:10:31.575Z,23.09
2022-07-26T21:13:01.377Z,23.07
2022-07-26T21:15:30.584Z,23.09
2022-07-26T21:17:59.392Z,23.11
2022-07-26T21:20:27.077Z,23.08
2022-07-26T21:23:03.661Z,23.08
2022-07-26T21:25:40.988Z,23.06
2022-07-26T21:28:08.677Z,23.06
2022-07-26T21:30:36.379Z,23.08
2022-07-26T21:33:04.204Z,23.05
2022-07-26T21:35:33.309Z,23.08
2022-07-26T21:38:01.011Z,23.03
2022-07-26T21:40:28.713Z,22.99
2022-07-26T21:42:56.401Z,23.02
2022-07-26T21:45:24.070Z,23.05
2022-07-26T21:47:51.845Z,23.02
2022-07-26T21:50:19.545Z,22.93
2022-07-26T21:52:47.375Z,22.85
2022-07-26T21:55:17.772Z,22.78
2022-07-26T21:57:46.207Z,22.78
2022-07-26T22:00:16.385Z,22.71
2022-07-26T22:02:44.135Z,22.67
2022-07-26T22:05:30.262Z,22.67
2022-07-26T22:07:58.011Z,22.64
2022-07-26T22:10:25.726Z,22.63
2022-07-26T22:12:53.508Z,22.56
2022-07-26T22:15:22.116Z,22.56
2022-07-26T22:17:49.879Z,22.52
2022-07-26T22:20:17.586Z,22.49
2022-07-26T22:22:45.266Z,22.44
2022-07-26T22:25:13.151Z,22.42
2022-07-26T22:27:40.801Z,22.39
2022-07-26T22:30:09.277Z,22.35
2022-07-26T22:32:36.901Z,22.33
2022-07-26T22:35:04.815Z,22.31
2022-07-26T22:37:32.477Z,22.31
2022-07-26T22:40:00.203Z,22.31
2022-07-26T22:42:28.045Z,22.33
2022-07-26T22:44:55.731Z,22.36
2022-07-26T22:47:23.494Z,22.30
2022-07-26T22:49:52.162Z,22.30
2022-07-26T22:52:19.949Z,22.25
2022-07-26T22:54:47.677Z,22.25
2022-07-26T22:57:15.620Z,22.29
2022-07-26T22:59:43.290Z,22.25
2022-07-26T23:02:10.985Z,22.20
2022-07-26T23:04:38.660Z,22.14
2022-07-26T23:07:06.890Z,22.13
2022-07-26T23:09:36.219Z,22.10
2022-07-26T23:12:03.953Z,22.06
2022-07-26T23:14:31.723Z,22.05
2022-07-26T23:16:59.620Z,21.94
2022-07-26T23:19:27.402Z,21.90
2022-07-26T23:21:55.084Z,21.85
2022-07-26T23:24:23.058Z,21.83
2022-07-26T23:26:50.854Z,21.81
2022-07-26T23:29:18.541Z,21.77
2022-07-26T23:31:46.388Z,21.67
2022-07-26T23:34:14.228Z,21.60
2022-07-26T23:36:42.060Z,21.52
2022-07-26T23:39:10.076Z,21.43
2022-07-26T23:41:38.039Z,21.38
2022-07-26T23:44:05.835Z,21.34
2022-07-26T23:46:33.728Z,21.25
2022-07-26T23:49:01.521Z,21.17
2022-07-26T23:51:29.247Z,21.09
2022-07-26T23:53:56.942Z,21.00
2022-07-26T23:56:24.787Z,21.05
2022-07-26T23:58:52.574Z,21.04
